sensor_id;sensor_type;location;lat;lon;timestamp;temperature;humidity
7814;DHT22;3952;48.364;16.022;2023-03-14T00:00:16;9.50;99.90
7814;DHT22;3952;48.364;16.022;2023-03-14T00:02:45;9.40;99.90
7814;DHT22;3952;48.364;16.022;2023-03-14T00:05:12;9.30;99.90
7814;DHT22;3952;48.364;16.022;2023-03-14T00:07:39;9.20;99.90
7814;DHT22;3952;48.364;16.022;2023-03-14T00:10:09;9.20;99.90
7814;DHT22;3952;48.364;16.022;2023-03-14T00:12:38;9.00;99.90
7814;DHT22;3952;48.364;16.022;2023-03-14T00:15:06;8.90;99.90
7814;DHT22;3952;48.364;16.022;2023-03-14T00:17:35;8.90;99.90
7814;DHT22;3952;48.364;16.022;2023-03-14T00:20:05;8.90;99.90
7814;DHT22;3952;48.364;16.022;2023-03-14T00:22:35;8.90;99.90
7814;DHT22;3952;48.364;16.022;2023-03-14T00:25:04;8.90;99.90
7814;DHT22;3952;48.364;16.022;2023-03-14T00:27:32;8.90;99.90
7814;DHT22;3952;48.364;16.022;2023-03-14T00:30:00;8.80;99.90
7814;DHT22;3952;48.364;16.022;2023-03-14T00:32:27;8.80;99.90
7814;DHT22;3952;48.364;16.022;2023-03-14T00:34:54;8.70;99.90
7814;DHT22;3952;48.364;16.022;2023-03-14T00:37:23;8.60;99.90
7814;DHT22;3952;48.364;16.022;2023-03-14T00:39:51;8.50;99.90
7814;DHT22;3952;48.364;16.022;2023-03-14T00:42:18;8.30;99.90
7814;DHT22;3952;48.364;16.022;2023-03-14T00:44:45;8.50;99.90
7814;DHT22;3952;48.364;16.022;2023-03-14T00:47:13;8.40;99.90
7814;DHT22;3952;48.364;16.022;2023-03-14T00:49:40;8.30;99.90
7814;DHT22;3952;48.364;16.022;2023-03-14T00:52:09;8.20;99.90
7814;DHT22;3952;48.364;16.022;2023-03-14T00:54:37;8.20;99.90
7814;DHT22;3952;48.364;16.022;2023-03-14T00:57:05;8.20;99.90
7814;DHT22;3952;48.364;16.022;2023-03-14T00:59:32;8.20;99.90
7814;DHT22;3952;48.364;16.022;2023-03-14T01:01:59;8.10;99.90
7814;DHT22;3952;48.364;16.022;2023-03-14T01:04:27;8.10;99.90
7814;DHT22;3952;48.364;16.022;2023-03-14T01:06:56;8.10;99.90
7814;DHT22;3952;48.364;16.022;2023-03-14T01:09:23;8.10;99.90
7814;DHT22;3952;48.364;16.022;2023-03-14T01:11:51;8.00;99.90
7814;DHT22;3952;48.364;16.022;2023-03-14T01:14:19;8.00;99.90
7814;DHT22;3952;48.364;16.022;2023-03-14T01:16:46;8.00;99.90
7814;DHT22;3952;48.364;16.022;2023-03-14T01:19:13;8.00;99.90
7814;DHT22;3952;48.364;16.022;2023-03-14T01:21:40;8.00;99.90
7814;DHT22;3952;48.364;16.022;2023-03-14T01:24:10;7.90;99.90
7814;DHT22;3952;48.364;16.022;2023-03-14T01:26:37;7.90;99.90
7814;DHT22;3952;48.364;16.022;2023-03-14T01:29:06;7.80;99.90
7814;DHT22;3952;48.364;16.022;2023-03-14T01:31:33;7.80;99.90
7814;DHT22;3952;48.364;16.022;2023-03-14T01:34:00;7.60;99.90
7814;DHT22;3952;48.364;16.022;2023-03-14T01:36:28;7.50;99.90
7814;DHT22;3952;48.364;16.022;2023-03-14T01:38:55;7.40;99.90
7814;DHT22;3952;48.364;16.022;2023-03-14T01:41:24;7.30;99.90
7814;DHT22;3952;48.364;16.022;2023-03-14T01:43:52;7.30;99.90
7814;DHT22;3952;48.364;16.022;2023-03-14T01:46:28;7.20;99.90
7814;DHT22;3952;48.364;16.022;2023-03-14T01:49:00;6.90;99.90
7814;DHT22;3952;48.364;16.022;2023-03-14T01:51:32;6.70;99.90
7814;DHT22;3952;48.364;16.022;2023-03-14T01:54:06;6.60;99.90
7814;DHT22;3952;48.364;16.022;2023-03-14T01:56:36;6.60;99.90
7814;DHT22;3952;48.364;16.022;2023-03-14T01:59:05;6.60;99.90
7814;DHT22;3952;48.364;16.022;2023-03-14T02:01:36;6.60;99.90
7814;DHT22;3952;48.364;16.022;2023-03-14T02:04:06;6.50;99.90
7814;DHT22;3952;48.364;16.022;2023-03-14T02:06:41;6.40;99.90
7814;DHT22;3952;48.364;16.022;2023-03-14T02:09:09;6.40;99.90
7814;DHT22;3952;48.364;16.022;2023-03-14T02:11:36;6.40;99.90
7814;DHT22;3952;48.364;16.022;2023-03-14T02:14:04;6.40;99.90
7814;DHT22;3952;48.364;16.022;2023-03-14T02:16:31;6.40;99.90
7814;DHT22;3952;48.364;16.022;2023-03-14T02:19:00;6.40;99.90
7814;DHT22;3952;48.364;16.022;2023-03-14T02:21:38;6.30;99.90
7814;DHT22;3952;48.364;16.022;2023-03-14T02:24:13;6.30;99.90
7814;DHT22;3952;48.364;16.022;2023-03-14T02:29:43;6.20;99.90
7814;DHT22;3952;48.364;16.022;2023-03-14T02:32:13;6.20;99.90
7814;DHT22;3952;48.364;16.022;2023-03-14T02:34:42;6.20;99.90
7814;DHT22;3952;48.364;16.022;2023-03-14T02:37:11;6.20;99.90
7814;DHT22;3952;48.364;16.022;2023-03-14T02:39:42;6.00;99.90
7814;DHT22;3952;48.364;16.022;2023-03-14T02:42:12;5.90;99.90
7814;DHT22;3952;48.364;16.022;2023-03-14T02:44:51;5.80;99.90
7814;DHT22;3952;48.364;16.022;2023-03-14T02:47:22;5.70;99.90
7814;DHT22;3952;48.364;16.022;2023-03-14T02:49:52;5.70;99.90
7814;DHT22;3952;48.364;16.022;2023-03-14T02:52:20;5.70;99.90
7814;DHT22;3952;48.364;16.022;2023-03-14T02:54:47;5.60;99.90
7814;DHT22;3952;48.364;16.022;2023-03-14T02:57:15;5.70;99.90
7814;DHT22;3952;48.364;16.022;2023-03-14T02:59:42;5.60;99.90
7814;DHT22;3952;48.364;16.022;2023-03-14T03:02:11;5.50;99.90
7814;DHT22;3952;48.364;16.022;2023-03-14T03:04:38;5.50;99.90
7814;DHT22;3952;48.364;16.022;2023-03-14T03:07:05;5.50;99.90
7814;DHT22;3952;48.364;16.022;2023-03-14T03:09:33;5.50;99.90
7814;DHT22;3952;48.364;16.022;2023-03-14T03:12:00;5.40;99.90
7814;DHT22;3952;48.364;16.022;2023-03-14T03:14:27;5.40;99.90
7814;DHT22;3952;48.364;16.022;2023-03-14T03:16:54;5.40;99.90
7814;DHT22;3952;48.364;16.022;2023-03-14T03:19:23;5.40;99.90
7814;DHT22;3952;48.364;16.022;2023-03-14T03:21:50;5.40;99.90
7814;DHT22;3952;48.364;16.022;2023-03-14T03:24:18;5.40;99.90
7814;DHT22;3952;48.364;16.022;2023-03-14T03:26:45;5.40;99.90
7814;DHT22;3952;48.364;16.022;2023-03-14T03:29:12;5.40;99.90
7814;DHT22;3952;48.364;16.022;2023-03-14T03:31:40;5.50;99.90
7814;DHT22;3952;48.364;16.022;2023-03-14T03:34:07;5.50;99.90
7814;DHT22;3952;48.364;16.022;2023-03-14T03:36:36;5.60;99.90
7814;DHT22;3952;48.364;16.022;2023-03-14T03:39:03;5.60;99.90
7814;DHT22;3952;48.364;16.022;2023-03-14T03:41:31;5.60;99.90
7814;DHT22;3952;48.364;16.022;2023-03-14T03:43:58;5.70;99.90
7814;DHT22;3952;48.364;16.022;2023-03-14T03:46:26;5.70;99.90
7814;DHT22;3952;48.364;16.022;2023-03-14T03:48:57;5.70;99.90
7814;DHT22;3952;48.364;16.022;2023-03-14T03:51:25;5.70;99.90
7814;DHT22;3952;48.364;16.022;2023-03-14T03:53:54;5.80;99.90
7814;DHT22;3952;48.364;16.022;2023-03-14T03:56:22;5.80;99.90
7814;DHT22;3952;48.364;16.022;2023-03-14T03:58:49;5.80;99.90
7814;DHT22;3952;48.364;16.022;2023-03-14T04:01:17;5.90;99.90
7814;DHT22;3952;48.364;16.022;2023-03-14T04:03:44;5.90;99.90
7814;DHT22;3952;48.364;16.022;2023-03-14T04:06:12;6.00;99.90
7814;DHT22;3952;48.364;16.022;2023-03-14T04:08:40;6.00;99.90
7814;DHT22;3952;48.364;16.022;2023-03-14T04:11:08;6.00;99.90
7814;DHT22;3952;48.364;16.022;2023-03-14T04:13:36;5.90;99.90
7814;DHT22;3952;48.364;16.022;2023-03-14T04:16:03;5.80;99.90
7814;DHT22;3952;48.364;16.022;2023-03-14T04:18:31;7.00;99.90
7814;DHT22;3952;48.364;16.022;2023-03-14T04:20:58;5.70;99.90
7814;DHT22;3952;48.364;16.022;2023-03-14T04:23:25;5.60;99.90
7814;DHT22;3952;48.364;16.022;2023-03-14T04:25:53;5.60;99.90
7814;DHT22;3952;48.364;16.022;2023-03-14T04:28:22;5.60;99.90
7814;DHT22;3952;48.364;16.022;2023-03-14T04:30:49;5.60;99.90
7814;DHT22;3952;48.364;16.022;2023-03-14T04:33:16;5.70;99.90
7814;DHT22;3952;48.364;16.022;2023-03-14T04:35:44;5.50;99.90
7814;DHT22;3952;48.364;16.022;2023-03-14T04:38:12;5.40;99.90
7814;DHT22;3952;48.364;16.022;2023-03-14T04:40:40;5.20;99.90
7814;DHT22;3952;48.364;16.022;2023-03-14T04:43:08;5.20;99.90
7814;DHT22;3952;48.364;16.022;2023-03-14T04:45:36;5.10;99.90
7814;DHT22;3952;48.364;16.022;2023-03-14T04:48:04;5.10;99.90
7814;DHT22;3952;48.364;16.022;2023-03-14T04:50:31;5.10;99.90
7814;DHT22;3952;48.364;16.022;2023-03-14T04:52:58;5.10;99.90
7814;DHT22;3952;48.364;16.022;2023-03-14T04:55:26;5.10;99.90
7814;DHT22;3952;48.364;16.022;2023-03-14T04:57:53;5.10;99.90
7814;DHT22;3952;48.364;16.022;2023-03-14T05:00:20;5.20;99.90
7814;DHT22;3952;48.364;16.022;2023-03-14T05:02:49;5.20;99.90
7814;DHT22;3952;48.364;16.022;2023-03-14T05:05:17;5.10;99.90
7814;DHT22;3952;48.364;16.022;2023-03-14T05:07:44;5.20;99.90
7814;DHT22;3952;48.364;16.022;2023-03-14T05:10:11;5.20;99.90
7814;DHT22;3952;48.364;16.022;2023-03-14T05:12:38;5.20;99.90
7814;DHT22;3952;48.364;16.022;2023-03-14T05:15:07;5.20;99.90
7814;DHT22;3952;48.364;16.022;2023-03-14T05:17:35;5.20;99.90
7814;DHT22;3952;48.364;16.022;2023-03-14T05:20:04;3.50;99.90
7814;DHT22;3952;48.364;16.022;2023-03-14T05:22:35;5.30;99.90
7814;DHT22;3952;48.364;16.022;2023-03-14T05:25:03;5.40;99.90
7814;DHT22;3952;48.364;16.022;2023-03-14T05:27:30;5.40;99.90
7814;DHT22;3952;48.364;16.022;2023-03-14T05:29:58;5.40;99.90
7814;DHT22;3952;48.364;16.022;2023-03-14T05:32:25;5.50;99.90
7814;DHT22;3952;48.364;16.022;2023-03-14T05:34:52;5.70;99.90
7814;DHT22;3952;48.364;16.022;2023-03-14T05:37:25;5.50;99.90
7814;DHT22;3952;48.364;16.022;2023-03-14T05:39:53;5.60;99.90
7814;DHT22;3952;48.364;16.022;2023-03-14T05:42:20;5.60;99.90
7814;DHT22;3952;48.364;16.022;2023-03-14T05:44:47;5.60;99.90
7814;DHT22;3952;48.364;16.022;2023-03-14T05:47:15;5.60;99.90
7814;DHT22;3952;48.364;16.022;2023-03-14T05:49:42;5.60;99.90
7814;DHT22;3952;48.364;16.022;2023-03-14T05:52:09;5.60;99.90
7814;DHT22;3952;48.364;16.022;2023-03-14T05:54:38;5.60;99.90
7814;DHT22;3952;48.364;16.022;2023-03-14T05:57:05;5.60;99.90
7814;DHT22;3952;48.364;16.022;2023-03-14T05:59:33;5.70;99.90
7814;DHT22;3952;48.364;16.022;2023-03-14T06:02:00;5.60;99.90
7814;DHT22;3952;48.364;16.022;2023-03-14T06:04:27;5.70;99.90
7814;DHT22;3952;48.364;16.022;2023-03-14T06:06:54;5.70;99.90
7814;DHT22;3952;48.364;16.022;2023-03-14T06:09:22;5.80;99.90
7814;DHT22;3952;48.364;16.022;2023-03-14T06:11:51;5.90;99.90
7814;DHT22;3952;48.364;16.022;2023-03-14T06:14:18;5.90;99.90
7814;DHT22;3952;48.364;16.022;2023-03-14T06:16:45;5.90;99.90
7814;DHT22;3952;48.364;16.022;2023-03-14T06:19:13;5.80;99.90
7814;DHT22;3952;48.364;16.022;2023-03-14T06:21:40;5.80;99.90
7814;DHT22;3952;48.364;16.022;2023-03-14T06:24:08;5.70;99.90
7814;DHT22;3952;48.364;16.022;2023-03-14T06:26:35;5.70;99.90
7814;DHT22;3952;48.364;16.022;2023-03-14T06:29:03;5.70;99.90
7814;DHT22;3952;48.364;16.022;2023-03-14T06:31:31;5.80;99.90
7814;DHT22;3952;48.364;16.022;2023-03-14T06:33:59;5.80;99.90
7814;DHT22;3952;48.364;16.022;2023-03-14T06:36:26;5.80;99.90
7814;DHT22;3952;48.364;16.022;2023-03-14T06:38:53;5.90;99.90
7814;DHT22;3952;48.364;16.022;2023-03-14T06:41:20;6.00;99.90
7814;DHT22;3952;48.364;16.022;2023-03-14T06:43:49;6.30;99.90
7814;DHT22;3952;48.364;16.022;2023-03-14T06:46:18;6.60;99.90
7814;DHT22;3952;48.364;16.022;2023-03-14T06:48:45;7.00;99.90
7814;DHT22;3952;48.364;16.022;2023-03-14T06:51:12;7.40;99.90
7814;DHT22;3952;48.364;16.022;2023-03-14T06:53:39;7.70;99.90
7814;DHT22;3952;48.364;16.022;2023-03-14T06:56:08;7.90;99.90
7814;DHT22;3952;48.364;16.022;2023-03-14T06:58:35;8.20;99.90
7814;DHT22;3952;48.364;16.022;2023-03-14T07:01:02;8.50;99.90
7814;DHT22;3952;48.364;16.022;2023-03-14T07:03:31;8.70;99.90
7814;DHT22;3952;48.364;16.022;2023-03-14T07:05:58;9.00;99.90
7814;DHT22;3952;48.364;16.022;2023-03-14T07:08:25;9.30;99.90
7814;DHT22;3952;48.364;16.022;2023-03-14T07:10:52;9.60;99.90
7814;DHT22;3952;48.364;16.022;2023-03-14T07:13:22;9.90;99.90
7814;DHT22;3952;48.364;16.022;2023-03-14T07:15:49;10.10;99.90
7814;DHT22;3952;48.364;16.022;2023-03-14T07:18:17;10.30;99.90
7814;DHT22;3952;48.364;16.022;2023-03-14T07:20:47;10.40;99.90
7814;DHT22;3952;48.364;16.022;2023-03-14T07:23:14;10.50;99.90
7814;DHT22;3952;48.364;16.022;2023-03-14T07:25:41;10.50;99.90
7814;DHT22;3952;48.364;16.022;2023-03-14T07:28:09;10.50;99.90
7814;DHT22;3952;48.364;16.022;2023-03-14T07:30:36;10.50;99.90
7814;DHT22;3952;48.364;16.022;2023-03-14T07:33:03;10.50;99.90
7814;DHT22;3952;48.364;16.022;2023-03-14T07:35:30;10.50;99.90
7814;DHT22;3952;48.364;16.022;2023-03-14T07:37:59;10.50;99.90
7814;DHT22;3952;48.364;16.022;2023-03-14T07:40:26;10.50;99.90
7814;DHT22;3952;48.364;16.022;2023-03-14T07:42:53;10.60;99.90
7814;DHT22;3952;48.364;16.022;2023-03-14T07:45:21;10.60;99.90
7814;DHT22;3952;48.364;16.022;2023-03-14T07:47:48;10.80;99.90
7814;DHT22;3952;48.364;16.022;2023-03-14T07:50:16;10.90;99.90
7814;DHT22;3952;48.364;16.022;2023-03-14T07:52:43;10.90;99.90
7814;DHT22;3952;48.364;16.022;2023-03-14T07:55:11;11.00;99.90
7814;DHT22;3952;48.364;16.022;2023-03-14T07:57:39;11.00;99.90
7814;DHT22;3952;48.364;16.022;2023-03-14T08:00:08;11.10;99.90
7814;DHT22;3952;48.364;16.022;2023-03-14T08:02:36;11.10;99.90
7814;DHT22;3952;48.364;16.022;2023-03-14T08:05:04;11.10;99.90
7814;DHT22;3952;48.364;16.022;2023-03-14T08:07:31;11.10;99.90
7814;DHT22;3952;48.364;16.022;2023-03-14T08:09:59;11.20;99.90
7814;DHT22;3952;48.364;16.022;2023-03-14T08:12:27;11.20;99.90
7814;DHT22;3952;48.364;16.022;2023-03-14T08:14:54;11.20;99.90
7814;DHT22;3952;48.364;16.022;2023-03-14T08:17:22;11.30;99.90
7814;DHT22;3952;48.364;16.022;2023-03-14T08:19:49;11.30;99.90
7814;DHT22;3952;48.364;16.022;2023-03-14T08:22:16;11.30;99.90
7814;DHT22;3952;48.364;16.022;2023-03-14T08:24:43;11.30;99.90
7814;DHT22;3952;48.364;16.022;2023-03-14T08:27:10;11.40;99.90
7814;DHT22;3952;48.364;16.022;2023-03-14T08:29:39;11.40;99.90
7814;DHT22;3952;48.364;16.022;2023-03-14T08:32:07;11.50;99.90
7814;DHT22;3952;48.364;16.022;2023-03-14T08:34:34;11.50;99.90
7814;DHT22;3952;48.364;16.022;2023-03-14T08:37:02;11.50;99.90
7814;DHT22;3952;48.364;16.022;2023-03-14T08:39:29;11.50;99.90
7814;DHT22;3952;48.364;16.022;2023-03-14T08:41:56;11.60;99.90
7814;DHT22;3952;48.364;16.022;2023-03-14T08:44:23;11.60;99.90
7814;DHT22;3952;48.364;16.022;2023-03-14T08:46:52;11.60;99.90
7814;DHT22;3952;48.364;16.022;2023-03-14T08:49:19;11.70;99.90
7814;DHT22;3952;48.364;16.022;2023-03-14T08:51:46;11.70;99.90
7814;DHT22;3952;48.364;16.022;2023-03-14T08:54:14;11.80;99.90
7814;DHT22;3952;48.364;16.022;2023-03-14T08:56:41;11.80;99.90
7814;DHT22;3952;48.364;16.022;2023-03-14T08:59:08;11.80;99.90
7814;DHT22;3952;48.364;16.022;2023-03-14T09:01:36;11.80;99.90
7814;DHT22;3952;48.364;16.022;2023-03-14T09:04:05;11.80;99.90
7814;DHT22;3952;48.364;16.022;2023-03-14T09:06:33;11.80;99.90
7814;DHT22;3952;48.364;16.022;2023-03-14T09:09:01;11.80;99.90
7814;DHT22;3952;48.364;16.022;2023-03-14T09:11:30;11.80;99.90
7814;DHT22;3952;48.364;16.022;2023-03-14T09:13:57;11.80;99.90
7814;DHT22;3952;48.364;16.022;2023-03-14T09:16:24;11.80;99.90
7814;DHT22;3952;48.364;16.022;2023-03-14T09:18:52;11.80;99.90
7814;DHT22;3952;48.364;16.022;2023-03-14T09:21:21;11.80;99.90
7814;DHT22;3952;48.364;16.022;2023-03-14T09:23:48;11.80;99.90
7814;DHT22;3952;48.364;16.022;2023-03-14T09:26:15;11.90;99.90
7814;DHT22;3952;48.364;16.022;2023-03-14T09:28:43;11.90;99.90
7814;DHT22;3952;48.364;16.022;2023-03-14T09:31:11;11.90;99.90
7814;DHT22;3952;48.364;16.022;2023-03-14T09:33:39;11.90;99.90
7814;DHT22;3952;48.364;16.022;2023-03-14T09:36:08;11.90;99.90
7814;DHT22;3952;48.364;16.022;2023-03-14T09:38:37;12.00;99.90
7814;DHT22;3952;48.364;16.022;2023-03-14T09:41:13;12.00;99.90
7814;DHT22;3952;48.364;16.022;2023-03-14T09:43:43;12.00;99.90
7814;DHT22;3952;48.364;16.022;2023-03-14T09:46:12;11.90;99.90
7814;DHT22;3952;48.364;16.022;2023-03-14T09:48:46;12.00;99.90
7814;DHT22;3952;48.364;16.022;2023-03-14T09:51:18;12.10;99.90
7814;DHT22;3952;48.364;16.022;2023-03-14T09:53:50;12.30;99.90
7814;DHT22;3952;48.364;16.022;2023-03-14T09:56:19;12.40;99.90
7814;DHT22;3952;48.364;16.022;2023-03-14T09:58:50;12.40;99.90
7814;DHT22;3952;48.364;16.022;2023-03-14T10:01:22;12.50;99.90
7814;DHT22;3952;48.364;16.022;2023-03-14T10:03:54;12.60;99.90
7814;DHT22;3952;48.364;16.022;2023-03-14T10:06:24;12.50;99.90
7814;DHT22;3952;48.364;16.022;2023-03-14T10:08:54;12.50;99.90
7814;DHT22;3952;48.364;16.022;2023-03-14T10:11:23;12.50;99.90
7814;DHT22;3952;48.364;16.022;2023-03-14T10:14:04;12.50;99.90
7814;DHT22;3952;48.364;16.022;2023-03-14T10:16:33;12.50;99.90
7814;DHT22;3952;48.364;16.022;2023-03-14T10:19:08;12.40;99.90
7814;DHT22;3952;48.364;16.022;2023-03-14T10:21:38;12.40;99.90
7814;DHT22;3952;48.364;16.022;2023-03-14T10:24:19;12.40;99.90
7814;DHT22;3952;48.364;16.022;2023-03-14T10:26:53;12.30;99.90
7814;DHT22;3952;48.364;16.022;2023-03-14T10:29:21;12.30;99.90
7814;DHT22;3952;48.364;16.022;2023-03-14T10:31:52;12.20;99.90
7814;DHT22;3952;48.364;16.022;2023-03-14T10:34:23;12.20;99.90
7814;DHT22;3952;48.364;16.022;2023-03-14T10:36:56;12.10;99.90
7814;DHT22;3952;48.364;16.022;2023-03-14T10:39:34;12.10;99.90
7814;DHT22;3952;48.364;16.022;2023-03-14T10:42:11;12.10;99.90
7814;DHT22;3952;48.364;16.022;2023-03-14T10:44:40;12.00;99.90
7814;DHT22;3952;48.364;16.022;2023-03-14T10:47:16;12.00;99.90
7814;DHT22;3952;48.364;16.022;2023-03-14T10:49:44;12.00;99.90
7814;DHT22;3952;48.364;16.022;2023-03-14T10:52:20;11.90;99.90
7814;DHT22;3952;48.364;16.022;2023-03-14T10:54:54;11.90;99.90
7814;DHT22;3952;48.364;16.022;2023-03-14T10:57:23;11.80;99.90
7814;DHT22;3952;48.364;16.022;2023-03-14T10:59:52;11.80;99.90
7814;DHT22;3952;48.364;16.022;2023-03-14T11:02:39;11.80;99.90
7814;DHT22;3952;48.364;16.022;2023-03-14T11:05:22;11.80;99.90
7814;DHT22;3952;48.364;16.022;2023-03-14T11:07:54;11.80;99.90
7814;DHT22;3952;48.364;16.022;2023-03-14T11:10:29;11.80;99.90
7814;DHT22;3952;48.364;16.022;2023-03-14T11:13:08;11.80;99.90
7814;DHT22;3952;48.364;16.022;2023-03-14T11:15:45;11.70;99.90
7814;DHT22;3952;48.364;16.022;2023-03-14T11:18:41;11.70;99.90
7814;DHT22;3952;48.364;16.022;2023-03-14T11:21:13;11.70;99.90
7814;DHT22;3952;48.364;16.022;2023-03-14T11:23:52;11.70;99.90
7814;DHT22;3952;48.364;16.022;2023-03-14T11:26:32;11.70;99.90
7814;DHT22;3952;48.364;16.022;2023-03-14T11:29:12;11.70;99.90
7814;DHT22;3952;48.364;16.022;2023-03-14T11:31:44;11.70;99.90
7814;DHT22;3952;48.364;16.022;2023-03-14T11:34:16;11.60;99.90
7814;DHT22;3952;48.364;16.022;2023-03-14T11:36:48;11.60;99.90
7814;DHT22;3952;48.364;16.022;2023-03-14T11:39:19;11.60;99.90
7814;DHT22;3952;48.364;16.022;2023-03-14T11:41:51;11.60;99.90
7814;DHT22;3952;48.364;16.022;2023-03-14T11:44:24;11.60;99.90
7814;DHT22;3952;48.364;16.022;2023-03-14T11:46:55;11.60;99.90
7814;DHT22;3952;48.364;16.022;2023-03-14T11:49:31;11.60;99.90
7814;DHT22;3952;48.364;16.022;2023-03-14T11:52:09;11.60;99.90
7814;DHT22;3952;48.364;16.022;2023-03-14T11:54:41;11.50;99.90
7814;DHT22;3952;48.364;16.022;2023-03-14T11:57:16;11.50;99.90
7814;DHT22;3952;48.364;16.022;2023-03-14T11:59:49;11.70;99.90
7814;DHT22;3952;48.364;16.022;2023-03-14T12:02:35;11.40;99.90
7814;DHT22;3952;48.364;16.022;2023-03-14T12:08:27;11.30;99.90
7814;DHT22;3952;48.364;16.022;2023-03-14T12:11:00;10.00;99.90
7814;DHT22;3952;48.364;16.022;2023-03-14T12:13:33;11.20;99.90
7814;DHT22;3952;48.364;16.022;2023-03-14T12:16:05;11.20;99.90
7814;DHT22;3952;48.364;16.022;2023-03-14T12:18:35;11.10;99.90
7814;DHT22;3952;48.364;16.022;2023-03-14T12:21:06;11.10;99.90
7814;DHT22;3952;48.364;16.022;2023-03-14T12:23:37;11.10;99.90
7814;DHT22;3952;48.364;16.022;2023-03-14T12:26:15;11.00;99.90
7814;DHT22;3952;48.364;16.022;2023-03-14T12:28:49;11.00;99.90
7814;DHT22;3952;48.364;16.022;2023-03-14T12:31:41;11.00;99.90
7814;DHT22;3952;48.364;16.022;2023-03-14T12:34:29;10.90;99.90
7814;DHT22;3952;48.364;16.022;2023-03-14T12:37:06;10.90;99.90
7814;DHT22;3952;48.364;16.022;2023-03-14T12:40:12;10.90;99.90
7814;DHT22;3952;48.364;16.022;2023-03-14T12:42:56;10.90;99.90
7814;DHT22;3952;48.364;16.022;2023-03-14T12:45:28;10.90;99.90
7814;DHT22;3952;48.364;16.022;2023-03-14T12:48:08;10.90;99.90
7814;DHT22;3952;48.364;16.022;2023-03-14T12:50:41;10.90;99.90
7814;DHT22;3952;48.364;16.022;2023-03-14T12:56:22;10.80;99.90
7814;DHT22;3952;48.364;16.022;2023-03-14T12:59:13;10.80;99.90
7814;DHT22;3952;48.364;16.022;2023-03-14T13:01:52;10.80;99.90
7814;DHT22;3952;48.364;16.022;2023-03-14T13:04:30;10.80;99.90
7814;DHT22;3952;48.364;16.022;2023-03-14T13:06:59;10.70;99.90
7814;DHT22;3952;48.364;16.022;2023-03-14T13:10:00;10.70;99.90
7814;DHT22;3952;48.364;16.022;2023-03-14T13:12:34;10.70;99.90
7814;DHT22;3952;48.364;16.022;2023-03-14T13:15:25;10.70;99.90
7814;DHT22;3952;48.364;16.022;2023-03-14T13:18:01;10.70;99.90
7814;DHT22;3952;48.364;16.022;2023-03-14T13:20:31;10.70;99.90
7814;DHT22;3952;48.364;16.022;2023-03-14T13:23:00;10.70;99.90
7814;DHT22;3952;48.364;16.022;2023-03-14T13:25:33;10.70;99.90
7814;DHT22;3952;48.364;16.022;2023-03-14T13:28:01;10.70;99.90
7814;DHT22;3952;48.364;16.022;2023-03-14T13:30:38;10.70;99.90
7814;DHT22;3952;48.364;16.022;2023-03-14T13:33:11;10.70;99.90
7814;DHT22;3952;48.364;16.022;2023-03-14T13:35:41;10.70;99.90
7814;DHT22;3952;48.364;16.022;2023-03-14T13:38:16;10.70;99.90
7814;DHT22;3952;48.364;16.022;2023-03-14T13:40:45;10.70;99.90
7814;DHT22;3952;48.364;16.022;2023-03-14T13:43:18;10.60;99.90
7814;DHT22;3952;48.364;16.022;2023-03-14T13:45:52;10.60;99.90
7814;DHT22;3952;48.364;16.022;2023-03-14T13:48:21;10.70;99.90
7814;DHT22;3952;48.364;16.022;2023-03-14T13:50:55;10.70;99.90
7814;DHT22;3952;48.364;16.022;2023-03-14T13:53:23;10.70;99.90
7814;DHT22;3952;48.364;16.022;2023-03-14T13:55:51;10.70;99.90
7814;DHT22;3952;48.364;16.022;2023-03-14T13:58:27;10.70;99.90
7814;DHT22;3952;48.364;16.022;2023-03-14T14:00:57;10.70;99.90
7814;DHT22;3952;48.364;16.022;2023-03-14T14:03:27;10.70;99.90
7814;DHT22;3952;48.364;16.022;2023-03-14T14:05:56;10.80;99.90
7814;DHT22;3952;48.364;16.022;2023-03-14T14:08:25;10.90;99.90
7814;DHT22;3952;48.364;16.022;2023-03-14T14:10:56;10.90;99.90
7814;DHT22;3952;48.364;16.022;2023-03-14T14:13:27;10.90;99.90
7814;DHT22;3952;48.364;16.022;2023-03-14T14:15:56;11.00;99.90
7814;DHT22;3952;48.364;16.022;2023-03-14T14:18:27;11.00;99.90
7814;DHT22;3952;48.364;16.022;2023-03-14T14:20:55;11.00;99.90
7814;DHT22;3952;48.364;16.022;2023-03-14T14:23:25;10.90;99.90
7814;DHT22;3952;48.364;16.022;2023-03-14T14:25:55;11.00;99.90
7814;DHT22;3952;48.364;16.022;2023-03-14T14:28:26;11.00;99.90
7814;DHT22;3952;48.364;16.022;2023-03-14T14:31:02;11.10;99.90
7814;DHT22;3952;48.364;16.022;2023-03-14T14:33:38;11.10;99.90
7814;DHT22;3952;48.364;16.022;2023-03-14T14:36:17;11.10;99.90
7814;DHT22;3952;48.364;16.022;2023-03-14T14:38:53;11.20;99.90
7814;DHT22;3952;48.364;16.022;2023-03-14T14:41:21;11.20;99.90
7814;DHT22;3952;48.364;16.022;2023-03-14T14:43:48;11.20;99.90
7814;DHT22;3952;48.364;16.022;2023-03-14T14:46:19;11.30;99.90
7814;DHT22;3952;48.364;16.022;2023-03-14T14:48:48;11.30;99.90
7814;DHT22;3952;48.364;16.022;2023-03-14T14:51:26;11.40;99.90
7814;DHT22;3952;48.364;16.022;2023-03-14T14:54:03;11.40;99.90
7814;DHT22;3952;48.364;16.022;2023-03-14T14:56:36;11.40;99.90
7814;DHT22;3952;48.364;16.022;2023-03-14T14:59:06;11.50;99.90
7814;DHT22;3952;48.364;16.022;2023-03-14T15:01:35;11.50;99.90
7814;DHT22;3952;48.364;16.022;2023-03-14T15:04:11;11.50;99.90
7814;DHT22;3952;48.364;16.022;2023-03-14T15:06:41;11.50;99.90
7814;DHT22;3952;48.364;16.022;2023-03-14T15:09:10;11.50;99.90
7814;DHT22;3952;48.364;16.022;2023-03-14T15:11:37;11.60;99.90
7814;DHT22;3952;48.364;16.022;2023-03-14T15:14:05;11.60;99.90
7814;DHT22;3952;48.364;16.022;2023-03-14T15:16:33;11.70;99.90
7814;DHT22;3952;48.364;16.022;2023-03-14T15:19:02;11.70;99.90
7814;DHT22;3952;48.364;16.022;2023-03-14T15:21:32;11.70;99.90
7814;DHT22;3952;48.364;16.022;2023-03-14T15:23:59;11.70;99.90
7814;DHT22;3952;48.364;16.022;2023-03-14T15:26:27;11.70;99.90
7814;DHT22;3952;48.364;16.022;2023-03-14T15:28:55;11.70;99.90
7814;DHT22;3952;48.364;16.022;2023-03-14T15:31:22;11.80;99.90
7814;DHT22;3952;48.364;16.022;2023-03-14T15:33:50;11.80;99.90
7814;DHT22;3952;48.364;16.022;2023-03-14T15:36:22;11.80;99.90
7814;DHT22;3952;48.364;16.022;2023-03-14T15:38:52;11.80;99.90
7814;DHT22;3952;48.364;16.022;2023-03-14T15:41:20;11.80;99.90
7814;DHT22;3952;48.364;16.022;2023-03-14T15:43:48;11.80;99.90
7814;DHT22;3952;48.364;16.022;2023-03-14T15:46:16;11.80;99.90
7814;DHT22;3952;48.364;16.022;2023-03-14T15:48:44;11.90;99.90
7814;DHT22;3952;48.364;16.022;2023-03-14T15:51:11;11.80;99.90
7814;DHT22;3952;48.364;16.022;2023-03-14T15:53:39;11.80;99.90
7814;DHT22;3952;48.364;16.022;2023-03-14T15:56:12;11.90;99.90
7814;DHT22;3952;48.364;16.022;2023-03-14T15:58:39;11.90;99.90
7814;DHT22;3952;48.364;16.022;2023-03-14T16:01:07;11.90;99.90
7814;DHT22;3952;48.364;16.022;2023-03-14T16:03:35;11.90;99.90
7814;DHT22;3952;48.364;16.022;2023-03-14T16:06:03;11.90;99.90
7814;DHT22;3952;48.364;16.022;2023-03-14T16:08:30;11.90;99.90
7814;DHT22;3952;48.364;16.022;2023-03-14T16:10:58;11.90;99.90
7814;DHT22;3952;48.364;16.022;2023-03-14T16:13:27;11.90;99.90
7814;DHT22;3952;48.364;16.022;2023-03-14T16:15:56;11.90;99.90
7814;DHT22;3952;48.364;16.022;2023-03-14T16:18:23;11.90;99.90